Time,TemperatureF,DewpointF,PressureIn,WindDirection,WindDirectionDegrees,WindSpeedMPH,WindSpeedGustMPH,Humidity,HourlyPrecipIn,Conditions,Clouds,dailyrainin,SoftwareType,DateUTC
2013-03-01 00:22:00,40.0,16.0,30.40,North,0,0.0,-999.0,37,0.00,,,-99.99,,2013-03-01 08:22:00,
2013-03-01 00:32:00,40.0,16.0,30.40,North,0,0.0,-999.0,37,0.00,,,-99.99,,2013-03-01 08:32:00,
2013-03-01 00:42:00,40.0,16.0,30.40,North,0,0.0,-999.0,37,0.00,,,-99.99,,2013-03-01 08:42:00,
2013-03-01 00:52:00,40.0,16.0,30.40,North,0,0.0,-999.0,37,0.00,,,-99.99,,2013-03-01 08:52:00,
2013-03-01 01:22:00,40.0,15.0,30.41,North,0,0.0,-999.0,35,0.00,,,-99.99,,2013-03-01 09:22:00,
2013-03-01 01:32:00,40.0,15.0,30.41,North,0,0.0,-999.0,35,0.00,,,-99.99,,2013-03-01 09:32:00,
2013-03-01 01:42:00,40.0,15.0,30.41,North,0,0.0,-999.0,35,0.00,,,-99.99,,2013-03-01 09:42:00,
2013-03-01 01:52:00,40.0,15.0,30.41,North,0,0.0,-999.0,35,0.00,,,-99.99,,2013-03-01 09:52:00,
2013-03-01 02:21:00,39.0,13.0,30.40,North,0,0.0,-999.0,34,0.00,,,-99.99,,2013-03-01 10:21:00,
2013-03-01 02:32:00,39.0,13.0,30.40,North,0,0.0,-999.0,34,0.00,,,-99.99,,2013-03-01 10:32:00,
2013-03-01 02:42:00,39.0,13.0,30.40,North,0,0.0,-999.0,34,0.00,,,-99.99,,2013-03-01 10:42:00,
2013-03-01 02:52:00,39.0,13.0,30.40,North,0,0.0,-999.0,34,0.00,,,-99.99,,2013-03-01 10:52:00,
2013-03-01 03:22:00,39.0,13.0,30.38,North,0,0.0,-999.0,34,0.00,,,-99.99,,2013-03-01 11:22:00,
2013-03-01 03:32:00,39.0,13.0,30.38,North,0,0.0,-999.0,34,0.00,,,-99.99,,2013-03-01 11:32:00,
2013-03-01 03:42:00,39.0,13.0,30.38,North,0,0.0,-999.0,34,0.00,,,-99.99,,2013-03-01 11:42:00,
2013-03-01 03:52:00,39.0,13.0,30.38,North,0,0.0,-999.0,34,0.00,,,-99.99,,2013-03-01 11:52:00,
2013-03-01 04:21:00,38.0,13.0,30.39,North,0,0.0,-999.0,35,0.00,,,-99.99,,2013-03-01 12:21:00,
2013-03-01 04:32:00,38.0,13.0,30.39,North,0,0.0,-999.0,35,0.00,,,-99.99,,2013-03-01 12:32:00,
2013-03-01 04:42:00,38.0,13.0,30.39,North,0,0.0,-999.0,35,0.00,,,-99.99,,2013-03-01 12:42:00,
2013-03-01 04:52:00,38.0,13.0,30.39,North,0,0.0,-999.0,35,0.00,,,-99.99,,2013-03-01 12:52:00,
2013-03-01 05:21:00,37.0,13.0,30.40,North,0,0.0,-999.0,36,0.00,,,-99.99,,2013-03-01 13:21:00,
2013-03-01 05:32:00,37.0,13.0,30.40,North,0,0.0,-999.0,36,0.00,,,-99.99,,2013-03-01 13:32:00,
2013-03-01 05:41:00,37.0,13.0,30.40,North,0,0.0,-999.0,36,0.00,,,-99.99,,2013-03-01 13:41:00,
2013-03-01 05:51:00,37.0,13.0,30.40,North,0,0.0,-999.0,36,0.00,,,-99.99,,2013-03-01 13:51:00,
2013-03-01 06:21:00,38.0,12.0,30.39,North,0,0.0,-999.0,34,0.00,,,-99.99,,2013-03-01 14:21:00,
2013-03-01 06:32:00,38.0,12.0,30.39,North,0,0.0,-999.0,34,0.00,,,-99.99,,2013-03-01 14:32:00,
2013-03-01 06:41:00,38.0,12.0,30.39,North,0,0.0,-999.0,34,0.00,,,-99.99,,2013-03-01 14:41:00,
2013-03-01 06:52:00,38.0,12.0,30.39,North,0,0.0,-999.0,34,0.00,,,-99.99,,2013-03-01 14:52:00,
2013-03-01 07:21:00,39.0,12.0,30.39,North,0,0.0,-999.0,32,0.00,,,-99.99,,2013-03-01 15:21:00,
2013-03-01 07:31:00,39.0,12.0,30.39,North,0,0.0,-999.0,32,0.00,,,-99.99,,2013-03-01 15:31:00,
2013-03-01 07:42:00,39.0,12.0,30.39,North,0,0.0,-999.0,32,0.00,,,-99.99,,2013-03-01 15:42:00,
2013-03-01 07:52:00,39.0,12.0,30.39,North,0,0.0,-999.0,32,0.00,,,-99.99,,2013-03-01 15:52:00,
2013-03-01 08:21:00,48.0,14.0,30.39,North,0,0.0,-999.0,25,0.00,,,-99.99,,2013-03-01 16:21:00,
2013-03-01 08:32:00,48.0,14.0,30.39,North,0,0.0,-999.0,25,0.00,,,-99.99,,2013-03-01 16:32:00,
2013-03-01 08:41:00,48.0,14.0,30.39,North,0,0.0,-999.0,25,0.00,,,-99.99,,2013-03-01 16:41:00,
2013-03-01 08:51:00,48.0,14.0,30.39,North,0,0.0,-999.0,25,0.00,,,-99.99,,2013-03-01 16:51:00,
2013-03-01 09:21:00,54.0,16.0,30.37,East,100,1.0,-999.0,22,0.00,,,-99.99,,2013-03-01 17:21:00,
2013-03-01 09:31:00,54.0,16.0,30.37,East,100,1.0,-999.0,22,0.00,,,-99.99,,2013-03-01 17:31:00,
2013-03-01 09:41:00,54.0,16.0,30.37,East,100,1.0,-999.0,22,0.00,,,-99.99,,2013-03-01 17:41:00,
2013-03-01 09:52:00,54.0,16.0,30.37,East,100,1.0,-999.0,22,0.00,,,-99.99,,2013-03-01 17:52:00,
2013-03-01 10:22:00,57.0,17.0,30.36,North,0,0.0,-999.0,21,0.00,,,-99.99,,2013-03-01 18:22:00,
2013-03-01 10:31:00,57.0,17.0,30.36,North,0,0.0,-999.0,21,0.00,,,-99.99,,2013-03-01 18:31:00,
2013-03-01 10:41:00,57.0,17.0,30.36,North,0,0.0,-999.0,21,0.00,,,-99.99,,2013-03-01 18:41:00,
2013-03-01 10:52:00,57.0,17.0,30.36,North,0,0.0,-999.0,21,0.00,,,-99.99,,2013-03-01 18:52:00,
2013-03-01 11:21:00,59.0,18.0,30.36,NW,320,1.0,-999.0,20,0.00,,,-99.99,,2013-03-01 19:21:00,
2013-03-01 11:31:00,59.0,18.0,30.36,NW,320,1.0,-999.0,20,0.00,,,-99.99,,2013-03-01 19:31:00,
2013-03-01 11:42:00,59.0,18.0,30.36,NW,320,1.0,-999.0,20,0.00,,,-99.99,,2013-03-01 19:42:00,
2013-03-01 11:51:00,59.0,18.0,30.36,NW,320,1.0,-999.0,20,0.00,,,-99.99,,2013-03-01 19:51:00,
2013-03-01 12:21:00,62.0,19.0,30.34,SW,230,1.0,-999.0,19,0.00,,,-99.99,,2013-03-01 20:21:00,
2013-03-01 12:31:00,62.0,19.0,30.34,SW,230,1.0,-999.0,19,0.00,,,-99.99,,2013-03-01 20:31:00,
2013-03-01 12:41:00,62.0,19.0,30.34,SW,230,1.0,-999.0,19,0.00,,,-99.99,,2013-03-01 20:41:00,
2013-03-01 12:52:00,62.0,19.0,30.34,SW,230,1.0,-999.0,19,0.00,,,-99.99,,2013-03-01 20:52:00,
2013-03-01 13:21:00,65.0,22.0,30.30,SSE,150,4.0,-999.0,19,0.00,,,-99.99,,2013-03-01 21:21:00,
2013-03-01 13:31:00,65.0,22.0,30.30,SSE,150,4.0,-999.0,19,0.00,,,-99.99,,2013-03-01 21:31:00,
2013-03-01 13:41:00,65.0,22.0,30.30,SSE,150,4.0,-999.0,19,0.00,,,-99.99,,2013-03-01 21:41:00,
2013-03-01 13:51:00,65.0,22.0,30.30,SSE,150,4.0,-999.0,19,0.00,,,-99.99,,2013-03-01 21:51:00,
2013-03-01 14:21:00,65.0,22.0,30.28,SE,140,3.0,-999.0,19,0.00,,,-99.99,,2013-03-01 22:21:00,
2013-03-01 14:31:00,65.0,22.0,30.28,SE,140,3.0,-999.0,19,0.00,,,-99.99,,2013-03-01 22:31:00,
2013-03-01 14:41:00,65.0,22.0,30.28,SE,140,3.0,-999.0,19,0.00,,,-99.99,,2013-03-01 22:41:00,
2013-03-01 14:51:00,65.0,22.0,30.28,SE,140,3.0,-999.0,19,0.00,,,-99.99,,2013-03-01 22:51:00,
2013-03-01 15:21:00,64.0,20.0,30.27,North,0,0.0,-999.0,18,0.00,,,-99.99,,2013-03-01 23:21:00,
2013-03-01 15:31:00,64.0,20.0,30.27,North,0,0.0,-999.0,18,0.00,,,-99.99,,2013-03-01 23:31:00,
2013-03-01 15:41:00,64.0,20.0,30.27,North,0,0.0,-999.0,18,0.00,,,-99.99,,2013-03-01 23:41:00,
2013-03-01 15:52:00,64.0,20.0,30.27,North,0,0.0,-999.0,18,0.00,,,-99.99,,2013-03-01 23:52:00,
2013-03-01 16:21:00,62.0,20.0,30.27,North,0,0.0,-999.0,20,0.00,,,-99.99,,2013-03-02 00:21:00,
2013-03-01 16:31:00,62.0,20.0,30.27,North,0,0.0,-999.0,20,0.00,,,-99.99,,2013-03-02 00:31:00,
2013-03-01 16:42:00,62.0,20.0,30.27,North,0,0.0,-999.0,20,0.00,,,-99.99,,2013-03-02 00:42:00,
2013-03-01 16:52:00,62.0,20.0,30.27,North,0,0.0,-999.0,20,0.00,,,-99.99,,2013-03-02 00:52:00,
2013-03-01 17:21:00,59.0,20.0,30.26,North,0,0.0,-999.0,22,0.00,,,-99.99,,2013-03-02 01:21:00,
2013-03-01 17:31:00,59.0,20.0,30.26,North,0,0.0,-999.0,22,0.00,,,-99.99,,2013-03-02 01:31:00,
2013-03-01 17:41:00,59.0,20.0,30.26,North,0,0.0,-999.0,22,0.00,,,-99.99,,2013-03-02 01:41:00,
2013-03-01 17:51:00,59.0,20.0,30.26,North,0,0.0,-999.0,22,0.00,,,-99.99,,2013-03-02 01:51:00,
2013-03-01 18:21:00,53.0,23.0,30.27,North,0,0.0,-999.0,31,0.00,,,-99.99,,2013-03-02 02:21:00,
2013-03-01 18:32:00,53.0,23.0,30.27,North,0,0.0,-999.0,31,0.00,,,-99.99,,2013-03-02 02:32:00,
2013-03-01 18:41:00,53.0,23.0,30.27,North,0,0.0,-999.0,31,0.00,,,-99.99,,2013-03-02 02:41:00,
2013-03-01 18:52:00,53.0,23.0,30.27,North,0,0.0,-999.0,31,0.00,,,-99.99,,2013-03-02 02:52:00,
2013-03-01 19:21:00,46.0,28.0,30.29,North,0,0.0,-999.0,49,0.00,,,-99.99,,2013-03-02 03:21:00,
2013-03-01 19:32:00,46.0,28.0,30.29,North,0,0.0,-999.0,49,0.00,,,-99.99,,2013-03-02 03:32:00,
2013-03-01 20:21:00,43.0,25.0,30.29,North,0,0.0,-999.0,49,0.00,,,-99.99,,2013-03-02 04:21:00,
2013-03-01 20:32:00,43.0,25.0,30.29,North,0,0.0,-999.0,49,0.00,,,-99.99,,2013-03-02 04:32:00,
2013-03-01 20:41:00,43.0,25.0,30.29,North,0,0.0,-999.0,49,0.00,,,-99.99,,2013-03-02 04:41:00,
2013-03-01 20:51:00,43.0,25.0,30.29,North,0,0.0,-999.0,49,0.00,,,-99.99,,2013-03-02 04:51:00,
2013-03-01 21:22:00,41.0,24.0,30.31,North,0,0.0,-999.0,51,0.00,,,-99.99,,2013-03-02 05:22:00,
2013-03-01 21:31:00,41.0,24.0,30.31,North,0,0.0,-999.0,51,0.00,,,-99.99,,2013-03-02 05:31:00,
2013-03-01 22:21:00,41.0,24.0,30.32,North,0,0.0,-999.0,50,0.00,,,-99.99,,2013-03-02 06:21:00,
2013-03-01 22:31:00,41.0,24.0,30.32,North,0,0.0,-999.0,50,0.00,,,-99.99,,2013-03-02 06:31:00,
2013-03-01 23:21:00,40.0,22.0,30.31,North,0,0.0,-999.0,48,0.00,,,-99.99,,2013-03-02 07:21:00,
2013-03-01 23:32:00,40.0,22.0,30.31,North,0,0.0,-999.0,48,0.00,,,-99.99,,2013-03-02 07:32:00,